Terminal Aerodrome Forecast
Issued by NWS

Home | Current Version | Previous Version | Graphics & Text | Print | Product List | Glossary On
Versions: 1 2 3 4 5 6 7 8 9 10 11 12 13
000
FTUS43 KGRB 160955 AAA
TAFAUW
TAF AMD
KAUW 160955Z 1610/1706 31011G17KT P6SM BKN030
     FM161100 31009KT P6SM SKC
     FM161500 28010G16KT P6SM SKC
     FM170000 23005KT P6SM SKC=

USA.gov is the U.S. government's official web portal to all federal, state and local government web resources and services.